createdAt,value
2023-04-23T00:00:34.092Z,94499.00
2023-04-23T00:01:34.110Z,94499.00
2023-04-23T00:02:34.245Z,94501.00
2023-04-23T00:03:34.380Z,94501.00
2023-04-23T00:04:34.262Z,94495.00
2023-04-23T00:05:34.266Z,94501.00
2023-04-23T00:06:34.253Z,94493.00
2023-04-23T00:07:34.269Z,94493.00
2023-04-23T00:08:34.288Z,94493.00
2023-04-23T00:09:34.328Z,94499.00
2023-04-23T00:10:34.337Z,94493.00
2023-04-23T00:11:34.362Z,94499.00
2023-04-23T00:12:34.374Z,94499.00
2023-04-23T00:13:34.399Z,94495.00
2023-04-23T00:14:34.472Z,94499.00
2023-04-23T00:15:34.457Z,94493.00
2023-04-23T00:16:34.599Z,94493.00
2023-04-23T00:17:34.569Z,94493.00
2023-04-23T00:18:34.553Z,94493.00
2023-04-23T00:19:34.583Z,94491.00
2023-04-23T00:20:34.704Z,94491.00
2023-04-23T00:21:34.634Z,94489.00
2023-04-23T00:22:34.648Z,94489.00
2023-04-23T00:23:34.704Z,94487.00
2023-04-23T00:24:34.703Z,94485.00
2023-04-23T00:25:34.776Z,94483.00
2023-04-23T00:26:34.771Z,94481.00
2023-04-23T00:27:34.794Z,94480.00
2023-04-23T00:28:34.862Z,94478.00
2023-04-23T00:29:34.861Z,94478.00
2023-04-23T00:30:34.899Z,94478.00
2023-04-23T00:31:34.928Z,94478.00
2023-04-23T00:32:34.967Z,94476.00
2023-04-23T00:33:34.971Z,94476.00
2023-04-23T00:34:34.988Z,94474.00
2023-04-23T00:35:35.020Z,94476.00
2023-04-23T00:36:35.069Z,94478.00
2023-04-23T00:37:35.078Z,94476.00
2023-04-23T00:38:35.138Z,94478.00
2023-04-23T00:39:35.155Z,94481.00
2023-04-23T00:40:35.193Z,94481.00
2023-04-23T00:41:35.216Z,94481.00
2023-04-23T00:42:35.233Z,94480.00
2023-04-23T00:43:35.274Z,94481.00
2023-04-23T00:44:35.374Z,94481.00
2023-04-23T00:45:35.350Z,94481.00
2023-04-23T00:46:35.356Z,94480.00
2023-04-23T00:47:35.386Z,94481.00
2023-04-23T00:48:35.422Z,94483.00
2023-04-23T00:49:35.445Z,94480.00
2023-04-23T00:50:35.489Z,94478.00
2023-04-23T00:51:35.512Z,94474.00
2023-04-23T00:52:35.552Z,94472.00
2023-04-23T00:53:35.556Z,94470.00
2023-04-23T00:54:35.623Z,94466.00
2023-04-23T00:55:35.681Z,94468.00
2023-04-23T00:56:35.688Z,94468.00
2023-04-23T00:57:35.726Z,94470.00
2023-04-23T00:58:35.726Z,94470.00
2023-04-23T00:59:35.760Z,94468.00
2023-04-23T01:00:35.811Z,94472.00
2023-04-23T01:01:35.853Z,94470.00
2023-04-23T01:02:35.918Z,94470.00
2023-04-23T01:03:35.983Z,94468.00
2023-04-23T01:04:35.925Z,94466.00
2023-04-23T01:05:35.936Z,94466.00
2023-04-23T01:06:35.960Z,94466.00
2023-04-23T01:07:35.990Z,94466.00
2023-04-23T01:08:36.031Z,94464.00
2023-04-23T01:09:36.083Z,94466.00
2023-04-23T01:10:36.095Z,94466.00
2023-04-23T01:11:36.121Z,94464.00
2023-04-23T01:12:36.182Z,94464.00
2023-04-23T01:13:36.178Z,94464.00
2023-04-23T01:14:36.184Z,94464.00
2023-04-23T01:15:36.218Z,94462.00
2023-04-23T01:16:36.279Z,94460.00
2023-04-23T01:17:36.322Z,94462.00
2023-04-23T01:18:36.341Z,94458.00
2023-04-23T01:19:36.371Z,94458.00
2023-04-23T01:20:36.382Z,94458.00
2023-04-23T01:21:36.397Z,94460.00
2023-04-23T01:22:36.465Z,94462.00
2023-04-23T01:23:36.485Z,94462.00
2023-04-23T01:24:36.524Z,94462.00
2023-04-23T01:25:36.519Z,94462.00
2023-04-23T01:26:36.573Z,94464.00
2023-04-23T01:27:36.638Z,94464.00
2023-04-23T01:28:36.616Z,94466.00
2023-04-23T01:29:36.694Z,94462.00
2023-04-23T01:30:36.824Z,94462.00
2023-04-23T01:31:36.732Z,94460.00
2023-04-23T01:32:36.791Z,94458.00
2023-04-23T01:33:36.769Z,94456.00
2023-04-23T01:34:36.832Z,94456.00
2023-04-23T01:35:36.897Z,94456.00
2023-04-23T01:36:36.873Z,94456.00
2023-04-23T01:37:36.952Z,94454.00
2023-04-23T01:38:36.963Z,94456.00
2023-04-23T01:39:36.983Z,94460.00
2023-04-23T01:40:37.029Z,94462.00
2023-04-23T01:41:37.044Z,94460.00
2023-04-23T01:42:37.081Z,94462.00
2023-04-23T01:43:37.106Z,94464.00
2023-04-23T01:44:37.133Z,94464.00
2023-04-23T01:45:37.197Z,94466.00
2023-04-23T01:46:37.240Z,94464.00
2023-04-23T01:47:37.285Z,94466.00
2023-04-23T01:48:37.270Z,94466.00
2023-04-23T01:49:37.285Z,94466.00
2023-04-23T01:50:37.333Z,94464.00
2023-04-23T01:51:37.370Z,94466.00
2023-04-23T01:52:37.404Z,94468.00
2023-04-23T01:53:37.444Z,94470.00
2023-04-23T01:54:37.438Z,94468.00
2023-04-23T01:55:37.485Z,94472.00
2023-04-23T01:56:37.504Z,94470.00
2023-04-23T01:57:37.573Z,94468.00
2023-04-23T01:58:37.608Z,94468.00
2023-04-23T01:59:37.609Z,94466.00
2023-04-23T02:00:37.663Z,94468.00
2023-04-23T02:01:37.713Z,94466.00
2023-04-23T02:02:37.877Z,94466.00
2023-04-23T02:03:37.986Z,94466.00
2023-04-23T02:04:37.887Z,94466.00
2023-04-23T02:05:37.801Z,94468.00
2023-04-23T02:06:37.828Z,94468.00
2023-04-23T02:07:37.859Z,94470.00
2023-04-23T02:08:37.882Z,94470.00
2023-04-23T02:09:37.945Z,94474.00
2023-04-23T02:10:37.973Z,94472.00
2023-04-23T02:11:37.990Z,94476.00
2023-04-23T02:12:38.022Z,94474.00
2023-04-23T02:13:38.035Z,94472.00
2023-04-23T02:14:38.100Z,94472.00
2023-04-23T02:15:38.112Z,94470.00
2023-04-23T02:16:38.121Z,94472.00
2023-04-23T02:17:38.159Z,94472.00
2023-04-23T02:18:38.173Z,94474.00
2023-04-23T02:19:38.226Z,94474.00
2023-04-23T02:20:38.271Z,94476.00
2023-04-23T02:21:38.283Z,94476.00
2023-04-23T02:22:38.339Z,94474.00
2023-04-23T02:23:38.369Z,94474.00
2023-04-23T02:24:38.493Z,94470.00
2023-04-23T02:25:38.419Z,94468.00
2023-04-23T02:26:38.456Z,94468.00
2023-04-23T02:27:38.498Z,94466.00
2023-04-23T02:28:38.513Z,94466.00
2023-04-23T02:29:38.574Z,94464.00
2023-04-23T02:30:38.573Z,94464.00
2023-04-23T02:31:38.612Z,94462.00
2023-04-23T02:32:38.651Z,94462.00
2023-04-23T02:33:38.647Z,94458.00
2023-04-23T02:34:38.885Z,94460.00
2023-04-23T02:35:38.703Z,94458.00
2023-04-23T02:36:38.754Z,94456.00
2023-04-23T02:37:38.755Z,94454.00
2023-04-23T02:38:38.818Z,94454.00
2023-04-23T02:39:38.844Z,94452.00
2023-04-23T02:40:38.848Z,94450.00
2023-04-23T02:41:38.928Z,94450.00
2023-04-23T02:42:39.101Z,94452.00
2023-04-23T02:43:38.935Z,94454.00
2023-04-23T02:44:39.091Z,94452.00
2023-04-23T02:45:39.028Z,94454.00
2023-04-23T02:46:39.059Z,94450.00
2023-04-23T02:47:39.124Z,94450.00
2023-04-23T02:48:39.104Z,94446.00
2023-04-23T02:49:39.167Z,94446.00
2023-04-23T02:50:39.180Z,94446.00
2023-04-23T02:51:39.209Z,94446.00
2023-04-23T02:52:39.237Z,94442.00
2023-04-23T02:53:39.255Z,94448.00
2023-04-23T02:54:39.588Z,94448.00
2023-04-23T02:55:39.320Z,94448.00
2023-04-23T02:56:39.372Z,94448.00
2023-04-23T02:57:39.374Z,94444.00
2023-04-23T02:58:39.427Z,94446.00
2023-04-23T02:59:39.461Z,94444.00
2023-04-23T03:00:39.541Z,94444.00
2023-04-23T03:01:39.527Z,94446.00
2023-04-23T03:02:39.603Z,94450.00
2023-04-23T03:03:39.773Z,94450.00
2023-04-23T03:04:39.934Z,94454.00
2023-04-23T03:05:39.672Z,94450.00
2023-04-23T03:06:39.695Z,94450.00
2023-04-23T03:07:39.735Z,94450.00
2023-04-23T03:08:39.749Z,94450.00
2023-04-23T03:09:39.806Z,94452.00
2023-04-23T03:10:39.826Z,94452.00
2023-04-23T03:11:39.855Z,94452.00
2023-04-23T03:12:39.881Z,94454.00
2023-04-23T03:13:39.914Z,94456.00
2023-04-23T03:14:40.048Z,94454.00
2023-04-23T03:15:39.991Z,94452.00
2023-04-23T03:16:40.029Z,94450.00
2023-04-23T03:17:40.050Z,94448.00
2023-04-23T03:18:40.072Z,94452.00
2023-04-23T03:19:40.101Z,94456.00
2023-04-23T03:20:40.125Z,94458.00
2023-04-23T03:21:40.121Z,94458.00
2023-04-23T03:22:40.201Z,94454.00
2023-04-23T03:23:40.200Z,94452.00
2023-04-23T03:24:40.541Z,94456.00
2023-04-23T03:25:40.273Z,94460.00
2023-04-23T03:26:40.290Z,94466.00
2023-04-23T03:27:40.451Z,94466.00
2023-04-23T03:28:40.355Z,94462.00
2023-04-23T03:29:40.411Z,94462.00
2023-04-23T03:30:40.447Z,94462.00
2023-04-23T03:31:40.450Z,94466.00
2023-04-23T03:32:40.561Z,94468.00
2023-04-23T03:33:40.539Z,94468.00
2023-04-23T03:34:40.715Z,94468.00
2023-04-23T03:35:40.592Z,94466.00
2023-04-23T03:36:40.611Z,94466.00
2023-04-23T03:37:40.645Z,94470.00
2023-04-23T03:38:40.680Z,94474.00
2023-04-23T03:39:40.707Z,94472.00
2023-04-23T03:40:40.769Z,94476.00
2023-04-23T03:41:40.771Z,94472.00
2023-04-23T03:42:40.813Z,94470.00
2023-04-23T03:43:40.851Z,94472.00
2023-04-23T03:44:41.087Z,94472.00
2023-04-23T03:45:40.931Z,94478.00
2023-04-23T03:46:40.928Z,94478.00
2023-04-23T03:47:41.035Z,94481.00
2023-04-23T03:48:41.040Z,94481.00
2023-04-23T03:49:41.030Z,94478.00
2023-04-23T03:50:41.090Z,94476.00
2023-04-23T03:51:41.094Z,94476.00
2023-04-23T03:52:41.100Z,94476.00
2023-04-23T03:53:41.156Z,94478.00
2023-04-23T03:54:41.435Z,94481.00
2023-04-23T03:55:41.229Z,94485.00
2023-04-23T03:56:41.268Z,94485.00
2023-04-23T03:57:41.324Z,94485.00
2023-04-23T03:58:41.311Z,94485.00
2023-04-23T03:59:41.369Z,94485.00
2023-04-23T04:00:41.364Z,94485.00
2023-04-23T04:01:41.424Z,94485.00
2023-04-23T04:02:41.629Z,94483.00
2023-04-23T04:03:41.586Z,94481.00
2023-04-23T04:04:41.931Z,94480.00
2023-04-23T04:05:41.637Z,94480.00
2023-04-23T04:06:41.574Z,94480.00
2023-04-23T04:07:41.617Z,94481.00
2023-04-23T04:08:41.713Z,94483.00
2023-04-23T04:09:41.669Z,94483.00
2023-04-23T04:10:41.719Z,94485.00
2023-04-23T04:11:41.795Z,94485.00
2023-04-23T04:12:41.809Z,94489.00
2023-04-23T04:13:41.834Z,94489.00
2023-04-23T04:14:42.117Z,94493.00
2023-04-23T04:15:41.885Z,94493.00
2023-04-23T04:16:41.959Z,94495.00
2023-04-23T04:17:42.030Z,94497.00
2023-04-23T04:18:42.021Z,94497.00
2023-04-23T04:19:42.030Z,94499.00
2023-04-23T04:20:42.091Z,94499.00
2023-04-23T04:21:42.095Z,94501.00
2023-04-23T04:22:42.115Z,94499.00
2023-04-23T04:23:42.166Z,94499.00
2023-04-23T04:24:42.680Z,94499.00
2023-04-23T04:25:42.238Z,94495.00
2023-04-23T04:26:42.286Z,94495.00
2023-04-23T04:27:42.312Z,94495.00
2023-04-23T04:28:42.455Z,94495.00
2023-04-23T04:29:42.385Z,94493.00
2023-04-23T04:30:42.482Z,94493.00
2023-04-23T04:31:42.500Z,94493.00
2023-04-23T04:32:42.504Z,94491.00
2023-04-23T04:33:42.538Z,94491.00
2023-04-23T04:34:42.781Z,94491.00
2023-04-23T04:35:42.576Z,94489.00
2023-04-23T04:36:42.617Z,94489.00
2023-04-23T04:37:42.673Z,94489.00
2023-04-23T04:38:42.680Z,94491.00
2023-04-23T04:39:42.725Z,94489.00
2023-04-23T04:40:42.718Z,94487.00
2023-04-23T04:41:42.782Z,94487.00
2023-04-23T04:42:42.820Z,94487.00
2023-04-23T04:43:42.827Z,94487.00
2023-04-23T04:44:43.013Z,94489.00
2023-04-23T04:45:42.870Z,94493.00
2023-04-23T04:46:43.099Z,94493.00
2023-04-23T04:47:42.952Z,94493.00
2023-04-23T04:48:43.005Z,94493.00
2023-04-23T04:49:43.069Z,94493.00
2023-04-23T04:50:43.047Z,94493.00
2023-04-23T04:51:43.105Z,94491.00
2023-04-23T04:52:43.087Z,94487.00
2023-04-23T04:53:43.137Z,94487.00
2023-04-23T04:54:43.393Z,94485.00
2023-04-23T04:55:43.216Z,94485.00
2023-04-23T04:56:43.268Z,94483.00
2023-04-23T04:57:43.341Z,94483.00
2023-04-23T04:58:43.352Z,94481.00
2023-04-23T04:59:43.702Z,94483.00
2023-04-23T05:00:43.440Z,94483.00
2023-04-23T05:01:43.440Z,94481.00
2023-04-23T05:02:43.561Z,94481.00
2023-04-23T05:03:43.660Z,94481.00
2023-04-23T05:04:43.979Z,94483.00
2023-04-23T05:05:43.545Z,94481.00
2023-04-23T05:06:43.583Z,94485.00
2023-04-23T05:07:43.608Z,94485.00
2023-04-23T05:08:43.644Z,94481.00
2023-04-23T05:09:45.136Z,94481.00
2023-04-23T05:10:43.702Z,94480.00
2023-04-23T05:11:43.736Z,94480.00
2023-04-23T05:12:43.759Z,94478.00
2023-04-23T05:13:43.780Z,94480.00
2023-04-23T05:14:43.909Z,94480.00
2023-04-23T05:15:43.861Z,94481.00
2023-04-23T05:16:43.971Z,94481.00
2023-04-23T05:17:43.974Z,94483.00
2023-04-23T05:18:43.979Z,94485.00
2023-04-23T05:19:44.033Z,94481.00
2023-04-23T05:20:44.040Z,94485.00
2023-04-23T05:21:44.139Z,94481.00
2023-04-23T05:22:44.100Z,94483.00
2023-04-23T05:23:44.146Z,94485.00
2023-04-23T05:24:44.236Z,94485.00
2023-04-23T05:25:44.240Z,94487.00
2023-04-23T05:26:44.251Z,94489.00
2023-04-23T05:27:44.309Z,94493.00
2023-04-23T05:28:44.316Z,94491.00
2023-04-23T05:29:44.351Z,94491.00
2023-04-23T05:30:44.381Z,94491.00
2023-04-23T05:31:44.458Z,94493.00
2023-04-23T05:32:44.500Z,94495.00
2023-04-23T05:33:49.833Z,94497.00
2023-04-23T05:34:45.463Z,94495.00
2023-04-23T05:35:44.440Z,94495.00
2023-04-23T05:36:44.464Z,94497.00
2023-04-23T05:37:44.461Z,94495.00
2023-04-23T05:38:44.437Z,94495.00
2023-04-23T05:39:44.587Z,94497.00
2023-04-23T05:40:44.402Z,94497.00
2023-04-23T05:41:44.387Z,94499.00
2023-04-23T05:42:44.366Z,94499.00
2023-04-23T05:43:44.399Z,94497.00
2023-04-23T05:44:44.404Z,94497.00
2023-04-23T05:45:44.434Z,94497.00
2023-04-23T05:46:44.356Z,94497.00
2023-04-23T05:47:44.373Z,94497.00
2023-04-23T05:48:44.340Z,94497.00
2023-04-23T05:49:44.396Z,94497.00
2023-04-23T05:50:44.415Z,94501.00
2023-04-23T05:51:46.407Z,94503.00
2023-04-23T05:52:44.461Z,94501.00
2023-04-23T05:53:44.506Z,94501.00
2023-04-23T05:54:44.669Z,94497.00
2023-04-23T05:55:44.588Z,94499.00
2023-04-23T05:56:44.589Z,94499.00
2023-04-23T05:57:44.651Z,94497.00
2023-04-23T05:58:44.649Z,94501.00
2023-04-23T05:59:44.701Z,94501.00
2023-04-23T06:00:44.753Z,94505.00
2023-04-23T06:01:44.809Z,94505.00
2023-04-23T06:02:45.036Z,94509.00
2023-04-23T06:03:44.992Z,94511.00
2023-04-23T06:04:45.304Z,94515.00
2023-04-23T06:05:44.907Z,94511.00
2023-04-23T06:06:44.929Z,94511.00
2023-04-23T06:07:44.942Z,94511.00
2023-04-23T06:08:44.981Z,94513.00
2023-04-23T06:09:45.029Z,94509.00
2023-04-23T06:10:45.058Z,94517.00
2023-04-23T06:11:45.106Z,94517.00
2023-04-23T06:12:45.110Z,94517.00
2023-04-23T06:13:45.163Z,94517.00
2023-04-23T06:14:45.170Z,94517.00
2023-04-23T06:15:45.229Z,94513.00
2023-04-23T06:16:45.249Z,94515.00
2023-04-23T06:17:45.296Z,94513.00
2023-04-23T06:18:45.305Z,94513.00
2023-04-23T06:19:45.353Z,94513.00
2023-04-23T06:20:45.389Z,94513.00
2023-04-23T06:21:45.414Z,94513.00
2023-04-23T06:22:45.452Z,94517.00
2023-04-23T06:23:45.487Z,94513.00
2023-04-23T06:24:45.489Z,94515.00
2023-04-23T06:25:45.494Z,94515.00
2023-04-23T06:26:45.553Z,94513.00
2023-04-23T06:27:45.566Z,94511.00
2023-04-23T06:28:45.587Z,94511.00
2023-04-23T06:29:45.635Z,94509.00
2023-04-23T06:30:45.675Z,94509.00
2023-04-23T06:31:45.711Z,94507.00
2023-04-23T06:32:45.733Z,94509.00
2023-04-23T06:33:46.334Z,94509.00
2023-04-23T06:34:59.355Z,94507.00
2023-04-23T06:35:46.755Z,94509.00
2023-04-23T06:36:45.743Z,94509.00
2023-04-23T06:37:45.709Z,94509.00
2023-04-23T06:38:45.689Z,94509.00
2023-04-23T06:39:45.665Z,94509.00
2023-04-23T06:40:45.692Z,94509.00
2023-04-23T06:41:45.653Z,94509.00
2023-04-23T06:42:45.660Z,94509.00
2023-04-23T06:43:45.618Z,94509.00
2023-04-23T06:44:45.571Z,94509.00
2023-04-23T06:45:45.565Z,94509.00
2023-04-23T06:46:45.598Z,94509.00
2023-04-23T06:47:45.565Z,94507.00
2023-04-23T06:48:45.578Z,94511.00
2023-04-23T06:49:45.607Z,94509.00
2023-04-23T06:50:45.629Z,94507.00
2023-04-23T06:51:45.631Z,94507.00
2023-04-23T06:52:45.682Z,94507.00
2023-04-23T06:53:45.675Z,94503.00
2023-04-23T06:54:45.714Z,94505.00
2023-04-23T06:55:45.722Z,94503.00
2023-04-23T06:56:45.811Z,94503.00
2023-04-23T06:57:45.848Z,94503.00
2023-04-23T06:58:45.826Z,94499.00
2023-04-23T06:59:45.847Z,94497.00
2023-04-23T07:00:45.885Z,94495.00
2023-04-23T07:01:45.891Z,94497.00
2023-04-23T07:02:45.941Z,94495.00
2023-04-23T07:03:45.917Z,94495.00
2023-04-23T07:04:46.364Z,94497.00
2023-04-23T07:05:45.979Z,94497.00
2023-04-23T07:06:46.005Z,94493.00
2023-04-23T07:07:45.994Z,94491.00
2023-04-23T07:08:46.036Z,94491.00
2023-04-23T07:09:46.058Z,94489.00
2023-04-23T07:10:46.065Z,94485.00
2023-04-23T07:11:46.248Z,94487.00
2023-04-23T07:12:46.139Z,94487.00
2023-04-23T07:13:46.133Z,94483.00
2023-04-23T07:14:46.197Z,94483.00
2023-04-23T07:15:46.210Z,94481.00
2023-04-23T07:16:46.273Z,94480.00
2023-04-23T07:17:46.292Z,94478.00
2023-04-23T07:18:46.247Z,94478.00
2023-04-23T07:19:46.288Z,94480.00
2023-04-23T07:20:46.323Z,94476.00
2023-04-23T07:21:46.354Z,94474.00
2023-04-23T07:22:46.358Z,94474.00
2023-04-23T07:23:46.390Z,94472.00
2023-04-23T07:24:46.406Z,94470.00
2023-04-23T07:25:46.624Z,94470.00
2023-04-23T07:26:46.459Z,94470.00
2023-04-23T07:27:46.460Z,94466.00
2023-04-23T07:28:46.505Z,94464.00
2023-04-23T07:29:46.511Z,94466.00
2023-04-23T07:30:46.537Z,94466.00
2023-04-23T07:31:46.572Z,94464.00
2023-04-23T07:32:46.571Z,94466.00
2023-04-23T07:33:46.606Z,94466.00
2023-04-23T07:34:46.575Z,94466.00
2023-04-23T07:35:46.642Z,94464.00
2023-04-23T07:36:46.611Z,94470.00
2023-04-23T07:37:46.635Z,94466.00
2023-04-23T07:38:46.670Z,94464.00
2023-04-23T07:39:46.885Z,94466.00
2023-04-23T07:40:46.700Z,94466.00
2023-04-23T07:41:46.680Z,94464.00
2023-04-23T07:42:46.699Z,94462.00
2023-04-23T07:43:46.743Z,94464.00
2023-04-23T07:44:46.721Z,94460.00
2023-04-23T07:45:46.787Z,94462.00
2023-04-23T07:46:46.728Z,94460.00
2023-04-23T07:47:46.832Z,94460.00
2023-04-23T07:48:46.756Z,94462.00
2023-04-23T07:49:46.796Z,94458.00
2023-04-23T07:50:46.795Z,94456.00
2023-04-23T07:51:46.819Z,94458.00
2023-04-23T07:52:46.800Z,94456.00
2023-04-23T07:53:46.769Z,94454.00
2023-04-23T07:54:46.808Z,94454.00
2023-04-23T07:55:46.803Z,94454.00
2023-04-23T07:56:46.872Z,94452.00
2023-04-23T07:57:46.832Z,94454.00
2023-04-23T07:58:46.834Z,94456.00
2023-04-23T07:59:46.826Z,94456.00
2023-04-23T08:00:46.818Z,94454.00
2023-04-23T08:01:47.096Z,94454.00
2023-04-23T08:02:46.951Z,94452.00
2023-04-23T08:03:47.028Z,94452.00
2023-04-23T08:04:46.973Z,94450.00
2023-04-23T08:05:46.946Z,94448.00
2023-04-23T08:06:46.795Z,94450.00
2023-04-23T08:07:46.777Z,94448.00
2023-04-23T08:08:46.780Z,94444.00
2023-04-23T08:09:47.061Z,94442.00
2023-04-23T08:10:46.767Z,94440.00
2023-04-23T08:11:46.752Z,94436.00
2023-04-23T08:12:46.766Z,94438.00
2023-04-23T08:13:46.702Z,94432.00
2023-04-23T08:14:46.686Z,94432.00
2023-04-23T08:15:46.692Z,94428.00
2023-04-23T08:16:46.659Z,94426.00
2023-04-23T08:17:46.633Z,94425.00
2023-04-23T08:18:58.183Z,94426.00
2023-04-23T08:19:47.667Z,94425.00
2023-04-23T08:20:46.571Z,94419.00
2023-04-23T08:21:46.524Z,94421.00
2023-04-23T08:22:46.527Z,94419.00
2023-04-23T08:23:46.510Z,94419.00
2023-04-23T08:24:46.493Z,94417.00
2023-04-23T08:25:46.442Z,94415.00
2023-04-23T08:26:46.399Z,94415.00
2023-04-23T08:27:46.385Z,94415.00
2023-04-23T08:28:46.359Z,94415.00
2023-04-23T08:29:46.351Z,94411.00
2023-04-23T08:30:46.325Z,94415.00
2023-04-23T08:31:46.411Z,94415.00
2023-04-23T08:32:46.417Z,94407.00
2023-04-23T08:33:46.460Z,94409.00
2023-04-23T08:34:46.436Z,94407.00
2023-04-23T08:35:46.493Z,94401.00
2023-04-23T08:36:46.554Z,94401.00
2023-04-23T08:37:46.526Z,94399.00
2023-04-23T08:38:46.565Z,94395.00
2023-04-23T08:39:46.632Z,94393.00
2023-04-23T08:40:46.648Z,94391.00
2023-04-23T08:41:46.665Z,94395.00
2023-04-23T08:42:46.690Z,94393.00
2023-04-23T08:43:46.736Z,94391.00
2023-04-23T08:44:46.744Z,94391.00
2023-04-23T08:45:46.741Z,94389.00
2023-04-23T08:46:46.835Z,94391.00
2023-04-23T08:47:46.840Z,94393.00
2023-04-23T08:48:46.817Z,94391.00
2023-04-23T08:49:46.845Z,94391.00
2023-04-23T08:50:46.845Z,94391.00
2023-04-23T08:51:46.905Z,94391.00
2023-04-23T08:52:46.888Z,94395.00
2023-04-23T08:53:46.942Z,94389.00
2023-04-23T08:54:46.952Z,94393.00
2023-04-23T08:55:46.947Z,94389.00
2023-04-23T08:56:46.968Z,94380.00
2023-04-23T08:57:46.973Z,94380.00
2023-04-23T08:58:47.012Z,94378.00
2023-04-23T08:59:47.025Z,94376.00
2023-04-23T09:00:47.067Z,94374.00
2023-04-23T09:01:47.081Z,94372.00
2023-04-23T09:02:47.150Z,94372.00
2023-04-23T09:03:47.235Z,94376.00
2023-04-23T09:04:48.878Z,94376.00
2023-04-23T09:05:47.059Z,94374.00
2023-04-23T09:06:47.048Z,94374.00
2023-04-23T09:07:47.013Z,94372.00
2023-04-23T09:08:46.926Z,94370.00
2023-04-23T09:09:46.902Z,94370.00
2023-04-23T09:10:46.864Z,94368.00
2023-04-23T09:11:46.824Z,94368.00
2023-04-23T09:12:46.806Z,94366.00
2023-04-23T09:13:46.765Z,94366.00
2023-04-23T09:14:46.744Z,94362.00
2023-04-23T09:15:46.715Z,94368.00
2023-04-23T09:16:46.676Z,94362.00
2023-04-23T09:17:46.711Z,94356.00
2023-04-23T09:18:46.573Z,94360.00
2023-04-23T09:19:46.554Z,94358.00
2023-04-23T09:20:46.549Z,94356.00
2023-04-23T09:21:46.507Z,94354.00
2023-04-23T09:22:47.284Z,94354.00
2023-04-23T09:23:46.428Z,94350.00
2023-04-23T09:24:46.353Z,94346.00
2023-04-23T09:25:46.316Z,94346.00
2023-04-23T09:26:46.304Z,94346.00
2023-04-23T09:27:46.304Z,94342.00
2023-04-23T09:28:47.081Z,94340.00
2023-04-23T09:29:46.187Z,94338.00
2023-04-23T09:30:46.146Z,94342.00
2023-04-23T09:31:46.153Z,94336.00
2023-04-23T09:32:46.209Z,94331.00
2023-04-23T09:33:46.033Z,94333.00
2023-04-23T09:34:45.996Z,94334.00
2023-04-23T09:35:45.986Z,94331.00
2023-04-23T09:36:45.933Z,94329.00
2023-04-23T09:37:45.887Z,94329.00
2023-04-23T09:38:45.839Z,94327.00
2023-04-23T09:39:45.865Z,94327.00
2023-04-23T09:40:45.846Z,94325.00
2023-04-23T09:41:45.861Z,94327.00
2023-04-23T09:42:45.858Z,94323.00
2023-04-23T09:43:45.824Z,94323.00
2023-04-23T09:44:46.433Z,94323.00
2023-04-23T09:45:45.837Z,94319.00
2023-04-23T09:46:45.815Z,94319.00
2023-04-23T09:47:45.858Z,94315.00
2023-04-23T09:48:45.784Z,94309.00
2023-04-23T09:49:45.779Z,94313.00
2023-04-23T09:50:45.770Z,94309.00
2023-04-23T09:51:45.769Z,94313.00
2023-04-23T09:52:45.743Z,94311.00
2023-04-23T09:53:45.709Z,94311.00
2023-04-23T09:54:45.700Z,94311.00
2023-04-23T09:55:45.678Z,94307.00
2023-04-23T09:56:45.712Z,94307.00
2023-04-23T09:57:45.671Z,94305.00
2023-04-23T09:58:45.651Z,94303.00
2023-04-23T09:59:47.888Z,94305.00
2023-04-23T10:00:46.578Z,94307.00
2023-04-23T10:01:45.587Z,94301.00
2023-04-23T10:02:45.591Z,94303.00
2023-04-23T10:03:45.622Z,94299.00
2023-04-23T10:04:45.494Z,94299.00
2023-04-23T10:06:53.452Z,94297.00
2023-04-23T10:07:46.331Z,94297.00
2023-04-23T10:08:45.266Z,94297.00
2023-04-23T10:09:45.214Z,94293.00
2023-04-23T10:10:59.482Z,94291.00
2023-04-23T10:11:46.118Z,94291.00
2023-04-23T10:13:46.061Z,94289.00
2023-04-23T10:14:45.008Z,94293.00
2023-04-23T10:15:45.012Z,94289.00
2023-04-23T10:16:49.109Z,94287.00
2023-04-23T10:17:44.976Z,94286.00
2023-04-23T10:18:44.848Z,94282.00
2023-04-23T10:19:45.048Z,94282.00
2023-04-23T10:20:44.760Z,94280.00
2023-04-23T10:21:54.661Z,94282.00
2023-04-23T10:22:45.672Z,94280.00
2023-04-23T10:23:44.622Z,94276.00
2023-04-23T10:24:44.593Z,94278.00
2023-04-23T10:25:44.542Z,94276.00
2023-04-23T10:26:44.524Z,94274.00
2023-04-23T10:27:51.968Z,94270.00
2023-04-23T10:28:45.409Z,94268.00
2023-04-23T10:29:44.526Z,94266.00
2023-04-23T10:30:44.324Z,94262.00
2023-04-23T10:31:44.291Z,94262.00
2023-04-23T10:32:44.232Z,94260.00
2023-04-23T10:33:55.916Z,94258.00
2023-04-23T10:34:45.122Z,94254.00
2023-04-23T10:35:44.118Z,94256.00
2023-04-23T10:36:44.026Z,94252.00
2023-04-23T10:37:44.002Z,94250.00
2023-04-23T10:38:54.928Z,94248.00
2023-04-23T10:39:44.957Z,94248.00
2023-04-23T10:40:43.865Z,94242.00
2023-04-23T10:41:43.837Z,94239.00
2023-04-23T10:42:43.816Z,94237.00
2023-04-23T10:43:43.757Z,94235.00
2023-04-23T10:45:43.679Z,94233.00
2023-04-23T10:46:43.643Z,94233.00
2023-04-23T10:47:43.619Z,94229.00
2023-04-23T10:48:43.535Z,94231.00
2023-04-23T10:49:43.617Z,94231.00
2023-04-23T10:50:58.604Z,94227.00
2023-04-23T10:52:06.361Z,94225.00
2023-04-23T10:52:44.853Z,94223.00
2023-04-23T10:53:43.364Z,94221.00
2023-04-23T10:54:43.330Z,94215.00
2023-04-23T10:55:43.282Z,94213.00
2023-04-23T10:56:43.313Z,94207.00
2023-04-23T10:57:43.193Z,94203.00
2023-04-23T10:58:43.161Z,94203.00
2023-04-23T10:59:43.488Z,94199.00
2023-04-23T11:00:43.076Z,94199.00
2023-04-23T11:01:43.055Z,94203.00
2023-04-23T11:02:43.054Z,94199.00
2023-04-23T11:03:44.627Z,94197.00
2023-04-23T11:04:42.958Z,94197.00
2023-04-23T11:05:42.836Z,94193.00
2023-04-23T11:06:42.820Z,94191.00
2023-04-23T11:07:42.790Z,94187.00
2023-04-23T11:08:42.725Z,94184.00
2023-04-23T11:09:43.220Z,94184.00
2023-04-23T11:10:42.666Z,94184.00
2023-04-23T11:11:42.608Z,94182.00
2023-04-23T11:12:43.495Z,94184.00
2023-04-23T11:13:42.510Z,94182.00
2023-04-23T11:14:42.499Z,94178.00
2023-04-23T11:15:42.457Z,94174.00
2023-04-23T11:16:42.445Z,94172.00
2023-04-23T11:17:42.414Z,94172.00
2023-04-23T11:18:42.310Z,94170.00
2023-04-23T11:19:42.677Z,94164.00
2023-04-23T11:20:42.248Z,94162.00
2023-04-23T11:21:42.208Z,94164.00
2023-04-23T11:22:42.170Z,94160.00
2023-04-23T11:23:42.125Z,94160.00
2023-04-23T11:24:42.304Z,94162.00
2023-04-23T11:25:42.035Z,94156.00
2023-04-23T11:26:41.984Z,94156.00
2023-04-23T11:27:41.996Z,94152.00
2023-04-23T11:28:41.943Z,94152.00
2023-04-23T11:29:42.023Z,94150.00
2023-04-23T11:30:41.810Z,94150.00
2023-04-23T11:31:54.422Z,94148.00
2023-04-23T11:32:42.849Z,94146.00
2023-04-23T11:33:41.719Z,94146.00
2023-04-23T11:34:41.624Z,94145.00
2023-04-23T11:35:41.627Z,94143.00
2023-04-23T11:36:41.544Z,94143.00
2023-04-23T11:37:41.508Z,94141.00
2023-04-23T11:38:41.480Z,94141.00
2023-04-23T11:39:41.830Z,94143.00
2023-04-23T11:40:41.382Z,94139.00
2023-04-23T11:41:41.352Z,94139.00
2023-04-23T11:42:41.305Z,94139.00
2023-04-23T11:43:41.304Z,94137.00
2023-04-23T11:44:41.239Z,94135.00
2023-04-23T11:45:41.239Z,94133.00
2023-04-23T11:46:41.171Z,94123.00
2023-04-23T11:47:41.109Z,94119.00